首页
METAR-TAF:

METAR-TAF

机场 :

鳥取, 日本

纬度: 34-00N, 经度: 134-38E, 海拔: 3米

当前天气观测

该预报发布于5小时和41分钟前的01:41 UTC
风速13节,风向西转西北,有时为23节阵风
温度 13°C
湿度 41%
气压 1023 hPa
能见度10公里或以上
少量云层高于3000英尺
多云

METAR: RJOP 040141Z 30013G23KT 9999 FEW030 BKN/// 13/00 Q1023 RMK 1CU030 A3021

时间: 16:22 (07:22 UTC)


TAF: 丢失

超过4000个机场的气象观测和天气预报(METAR&TAF报告)。

可查询的气象台以黄色和红色小点在地图上表示。

将鼠标移到小点上方,可查看气象台名称。

然后点击查看天气观测和预报。

如需切换地图:点击带黑十字的绿色按钮放大地图;点击带横线的绿色按钮缩小地图;或者点击绿色箭头查看邻近地区的地图。


METAR-TAF: